createdAt,value
2018-06-12T00:00:31.969Z,16.80
2018-06-12T00:03:00.294Z,16.80
2018-06-12T00:05:28.670Z,16.80
2018-06-12T00:07:56.934Z,16.80
2018-06-12T00:10:25.232Z,16.80
2018-06-12T00:12:53.545Z,16.70
2018-06-12T00:15:21.851Z,16.80
2018-06-12T00:17:50.172Z,16.80
2018-06-12T00:20:18.444Z,16.70
2018-06-12T00:22:46.818Z,16.70
2018-06-12T00:25:15.136Z,16.70
2018-06-12T00:27:43.449Z,16.70
2018-06-12T00:32:39.781Z,16.70
2018-06-12T00:35:08.064Z,16.80
2018-06-12T00:37:36.420Z,16.80
2018-06-12T00:40:04.718Z,16.80
2018-06-12T00:42:33.011Z,16.90
2018-06-12T00:45:01.288Z,16.90
2018-06-12T00:47:29.590Z,16.90
2018-06-12T00:49:57.880Z,16.90
2018-06-12T00:52:26.160Z,16.90
2018-06-12T00:57:22.585Z,17.00
2018-06-12T00:59:50.880Z,17.00
2018-06-12T01:02:19.174Z,17.00
2018-06-12T01:04:47.473Z,17.00
2018-06-12T01:09:43.772Z,17.00
2018-06-12T01:12:12.059Z,17.00
2018-06-12T01:14:40.366Z,17.00
2018-06-12T01:17:08.693Z,17.00
2018-06-12T01:19:36.968Z,17.00
2018-06-12T01:22:05.300Z,17.00
2018-06-12T01:27:01.629Z,16.90
2018-06-12T01:29:29.937Z,16.90
2018-06-12T01:31:58.206Z,17.00
2018-06-12T01:34:26.478Z,16.90
2018-06-12T01:36:54.776Z,16.90
2018-06-12T01:39:23.133Z,16.90
2018-06-12T01:41:51.424Z,16.90
2018-06-12T01:44:19.728Z,16.90
2018-06-12T01:46:48.005Z,16.90
2018-06-12T01:49:16.286Z,16.90
2018-06-12T01:51:44.574Z,16.90
2018-06-12T01:59:09.016Z,16.90
2018-06-12T02:01:37.306Z,16.90
2018-06-12T02:04:05.658Z,16.90
2018-06-12T02:06:33.953Z,16.90
2018-06-12T02:09:02.326Z,16.80
2018-06-12T02:11:30.630Z,16.90
2018-06-12T02:13:59.011Z,16.90
2018-06-12T02:16:27.311Z,16.90
2018-06-12T02:21:23.593Z,16.90
2018-06-12T02:23:51.881Z,16.90
2018-06-12T02:26:20.174Z,16.90
2018-06-12T02:31:16.575Z,17.00
2018-06-12T02:33:44.870Z,16.90
2018-06-12T02:36:13.153Z,17.00
2018-06-12T02:38:41.524Z,17.00
2018-06-12T02:41:09.918Z,16.90
2018-06-12T02:43:38.210Z,16.90
2018-06-12T02:51:02.533Z,16.90
2018-06-12T02:53:30.835Z,16.90
2018-06-12T02:55:59.103Z,16.90
2018-06-12T02:58:27.408Z,16.90
2018-06-12T03:00:55.701Z,16.90
2018-06-12T03:03:23.976Z,16.80
2018-06-12T03:05:52.266Z,16.90
2018-06-12T03:08:20.535Z,16.90
2018-06-12T03:10:48.809Z,17.00
2018-06-12T03:13:17.163Z,16.90
2018-06-12T03:15:45.452Z,17.00
2018-06-12T03:20:44.153Z,17.00
2018-06-12T03:23:12.432Z,17.00
2018-06-12T03:25:40.715Z,17.00
2018-06-12T03:28:08.995Z,17.00
2018-06-12T03:30:37.550Z,17.00
2018-06-12T03:33:05.881Z,17.00
2018-06-12T03:35:34.177Z,17.00
2018-06-12T03:38:02.484Z,17.00
2018-06-12T03:40:30.781Z,17.00
2018-06-12T03:42:59.092Z,17.00
2018-06-12T03:45:27.381Z,17.00
2018-06-12T03:47:55.663Z,17.00
2018-06-12T03:50:23.933Z,17.00
2018-06-12T03:52:52.349Z,17.10
2018-06-12T03:55:20.655Z,17.10
2018-06-12T03:57:48.961Z,17.10
2018-06-12T04:00:17.229Z,17.10
2018-06-12T04:02:45.522Z,17.10
2018-06-12T04:05:13.880Z,17.10
2018-06-12T04:07:42.205Z,17.10
2018-06-12T04:10:10.511Z,17.10
2018-06-12T04:12:38.801Z,17.20
2018-06-12T04:15:07.098Z,17.20
2018-06-12T04:17:35.367Z,17.20
2018-06-12T04:20:03.717Z,17.20
2018-06-12T04:25:00.007Z,17.30
2018-06-12T04:27:28.403Z,17.30
2018-06-12T04:29:56.698Z,17.40
2018-06-12T04:32:25.007Z,17.40
2018-06-12T04:34:53.289Z,17.40
2018-06-12T04:37:21.579Z,17.40
2018-06-12T04:39:49.843Z,17.50
2018-06-12T04:42:18.112Z,17.50
2018-06-12T04:44:46.401Z,17.60
2018-06-12T04:47:14.793Z,17.60
2018-06-12T04:49:43.065Z,17.70
2018-06-12T04:52:11.339Z,17.70
2018-06-12T04:54:39.659Z,17.70
2018-06-12T04:57:08.017Z,17.70
2018-06-12T04:59:36.371Z,17.70
2018-06-12T05:02:04.666Z,17.70
2018-06-12T05:04:32.938Z,17.70
2018-06-12T05:07:01.235Z,17.70
2018-06-12T05:09:29.533Z,17.70
2018-06-12T05:11:57.811Z,17.70
2018-06-12T05:14:26.103Z,17.60
2018-06-12T05:16:54.497Z,17.70
2018-06-12T05:19:22.841Z,17.60
2018-06-12T05:21:51.151Z,17.60
2018-06-12T05:24:19.436Z,17.50
2018-06-12T05:26:47.734Z,17.50
2018-06-12T05:29:16.073Z,17.40
2018-06-12T05:31:44.381Z,17.30
2018-06-12T05:34:12.695Z,17.30
2018-06-12T05:41:39.518Z,17.10
2018-06-12T05:44:07.795Z,17.00
2018-06-12T05:46:36.081Z,17.00
2018-06-12T05:49:04.636Z,17.00
2018-06-12T05:54:01.039Z,16.80
2018-06-12T05:56:29.496Z,16.80
2018-06-12T05:58:57.806Z,16.80
2018-06-12T06:01:26.085Z,16.90
2018-06-12T06:03:54.434Z,16.80
2018-06-12T06:06:22.696Z,16.80
2018-06-12T06:08:50.992Z,16.80
2018-06-12T06:11:19.288Z,16.70
2018-06-12T06:13:47.583Z,16.70
2018-06-12T06:16:15.866Z,16.60
2018-06-12T06:18:44.244Z,16.60
2018-06-12T06:21:12.544Z,16.60
2018-06-12T06:23:40.848Z,16.70
2018-06-12T06:26:09.176Z,16.80
2018-06-12T06:31:05.484Z,16.80
2018-06-12T06:33:33.799Z,16.70
2018-06-12T06:36:02.143Z,16.70
2018-06-12T06:38:30.412Z,16.50
2018-06-12T06:40:58.740Z,16.40
2018-06-12T06:43:27.020Z,16.40
2018-06-12T06:45:55.327Z,16.30
2018-06-12T06:48:23.617Z,16.20
2018-06-12T06:50:51.949Z,16.20
2018-06-12T06:53:20.291Z,16.10
2018-06-12T06:55:48.615Z,16.10
2018-06-12T06:58:16.970Z,16.00
2018-06-12T07:00:45.260Z,16.00
2018-06-12T07:03:13.560Z,15.90
2018-06-12T07:05:41.889Z,15.90
2018-06-12T07:08:10.276Z,15.90
2018-06-12T07:13:06.617Z,15.70
2018-06-12T07:15:34.953Z,15.70
2018-06-12T07:18:03.350Z,15.60
2018-06-12T07:20:42.795Z,15.50
2018-06-12T07:23:11.096Z,15.50
2018-06-12T07:25:39.409Z,15.40
2018-06-12T07:28:07.681Z,15.40
2018-06-12T07:30:35.966Z,15.50
2018-06-12T07:33:04.273Z,15.50
2018-06-12T07:35:32.580Z,15.50
2018-06-12T07:38:00.858Z,15.50
2018-06-12T07:40:29.183Z,15.50
2018-06-12T07:42:57.462Z,15.50
2018-06-12T07:45:25.762Z,15.50
2018-06-12T07:47:54.056Z,15.60
2018-06-12T07:50:22.343Z,15.60
2018-06-12T07:52:50.653Z,15.60
2018-06-12T07:55:18.945Z,15.60
2018-06-12T07:57:47.245Z,15.60
2018-06-12T08:00:15.507Z,15.70
2018-06-12T08:02:43.829Z,15.70
2018-06-12T08:05:12.140Z,15.80
2018-06-12T08:10:08.442Z,15.90
2018-06-12T08:12:36.729Z,15.90
2018-06-12T08:15:05.059Z,16.00
2018-06-12T08:20:01.405Z,16.10
2018-06-12T08:22:29.691Z,16.10
2018-06-12T08:27:26.085Z,16.30
2018-06-12T08:29:54.383Z,16.50
2018-06-12T08:32:22.649Z,16.60
2018-06-12T08:34:51.014Z,16.70
2018-06-12T08:39:47.403Z,16.90
2018-06-12T08:42:15.801Z,17.10
2018-06-12T08:44:44.069Z,17.20
2018-06-12T08:47:12.353Z,17.30
2018-06-12T08:49:40.639Z,17.30
2018-06-12T08:52:08.924Z,17.30
2018-06-12T08:54:37.253Z,17.30
2018-06-12T08:57:05.547Z,17.30
2018-06-12T09:02:02.237Z,17.40
2018-06-12T09:04:30.509Z,17.60
2018-06-12T09:06:58.771Z,17.70
2018-06-12T09:11:55.108Z,18.00
2018-06-12T09:14:23.421Z,18.20
2018-06-12T09:16:51.745Z,18.40
2018-06-12T09:19:20.024Z,18.70
2018-06-12T09:21:48.311Z,18.80
2018-06-12T09:24:16.643Z,18.90
2018-06-12T09:26:44.909Z,19.00
2018-06-12T09:29:13.213Z,19.00
2018-06-12T09:34:09.545Z,19.00
2018-06-12T09:36:37.860Z,18.90
2018-06-12T09:39:08.317Z,19.00
2018-06-12T09:41:36.691Z,18.80
2018-06-12T09:44:05.035Z,18.70
2018-06-12T09:46:33.326Z,18.90
2018-06-12T09:49:01.677Z,19.00
2018-06-12T09:51:29.954Z,19.20
2018-06-12T09:53:58.340Z,19.40
2018-06-12T09:56:26.673Z,19.50
2018-06-12T10:01:23.628Z,19.40
2018-06-12T10:03:52.929Z,19.30
2018-06-12T10:06:21.365Z,19.30
2018-06-12T10:08:49.649Z,19.30
2018-06-12T10:11:17.963Z,19.40
2018-06-12T10:13:46.259Z,19.50
2018-06-12T10:16:14.680Z,19.60
2018-06-12T10:18:43.046Z,19.70
2018-06-12T10:21:11.446Z,19.80
2018-06-12T10:23:40.255Z,20.00
2018-06-12T10:26:08.587Z,20.30
2018-06-12T10:28:36.851Z,20.40
2018-06-12T10:31:05.157Z,20.40
2018-06-12T10:33:33.447Z,20.20
2018-06-12T10:36:01.739Z,19.90
2018-06-12T10:38:30.047Z,19.80
2018-06-12T10:40:58.319Z,19.70
2018-06-12T10:43:26.608Z,19.70
2018-06-12T10:45:54.905Z,19.50
2018-06-12T10:48:23.199Z,19.40
2018-06-12T10:50:51.601Z,19.30
2018-06-12T10:53:19.891Z,19.20
2018-06-12T10:55:48.216Z,19.10
2018-06-12T11:00:44.555Z,18.90
2018-06-12T11:03:12.837Z,18.90
2018-06-12T11:05:41.137Z,18.80
2018-06-12T11:10:37.426Z,19.00
2018-06-12T11:13:05.701Z,19.20
2018-06-12T11:15:33.987Z,19.30
2018-06-12T11:18:02.293Z,19.40
2018-06-12T11:20:30.591Z,19.50
2018-06-12T11:22:58.913Z,19.50
2018-06-12T11:27:55.303Z,19.70
2018-06-12T11:30:23.605Z,19.70
2018-06-12T11:32:51.913Z,19.80
2018-06-12T11:35:20.195Z,20.00
2018-06-12T11:37:48.503Z,20.30
2018-06-12T11:40:16.785Z,20.30
2018-06-12T11:42:45.101Z,20.20
2018-06-12T11:45:13.411Z,20.20
2018-06-12T11:47:41.715Z,20.30
2018-06-12T11:50:10.009Z,20.00
2018-06-12T11:52:38.313Z,19.90
2018-06-12T11:55:06.768Z,20.00
2018-06-12T11:57:35.109Z,20.30
2018-06-12T12:00:03.524Z,20.60
2018-06-12T12:02:31.781Z,20.60
2018-06-12T12:05:00.090Z,20.40
2018-06-12T12:07:28.505Z,20.10
2018-06-12T12:12:24.779Z,19.80
2018-06-12T12:14:53.162Z,20.00
2018-06-12T12:17:21.442Z,20.00
2018-06-12T12:19:49.764Z,20.00
2018-06-12T12:22:18.085Z,19.90
2018-06-12T12:24:46.345Z,20.00
2018-06-12T12:27:14.610Z,20.30
2018-06-12T12:29:42.886Z,20.60
2018-06-12T12:32:11.175Z,20.90
2018-06-12T12:34:39.457Z,21.10
2018-06-12T12:37:07.751Z,21.10
2018-06-12T12:39:36.046Z,20.80
2018-06-12T12:42:04.417Z,20.50
2018-06-12T12:44:32.749Z,20.20
2018-06-12T12:47:01.041Z,20.00
2018-06-12T12:49:29.311Z,19.80
2018-06-12T12:51:57.619Z,19.60
2018-06-12T12:54:25.907Z,19.40
2018-06-12T13:01:50.219Z,18.80
2018-06-12T13:04:18.529Z,18.70
2018-06-12T13:06:46.806Z,18.50
2018-06-12T13:09:15.180Z,18.50
2018-06-12T13:11:43.467Z,18.40
2018-06-12T13:14:11.745Z,18.40
2018-06-12T13:16:40.048Z,18.40
2018-06-12T13:19:08.333Z,18.40
2018-06-12T13:21:36.711Z,18.40
2018-06-12T13:24:05.026Z,18.30
2018-06-12T13:26:33.338Z,18.20
2018-06-12T13:29:01.619Z,18.20
2018-06-12T13:31:29.935Z,18.10
2018-06-12T13:33:58.276Z,18.00
2018-06-12T13:36:26.606Z,17.90
2018-06-12T13:38:54.952Z,17.80
2018-06-12T13:41:23.254Z,17.70
2018-06-12T13:43:51.530Z,17.60
2018-06-12T13:46:19.842Z,17.50
2018-06-12T13:48:48.134Z,17.40
2018-06-12T13:51:16.473Z,17.30
2018-06-12T13:53:44.784Z,17.10
2018-06-12T13:58:41.124Z,17.00
2018-06-12T14:01:09.434Z,16.90
2018-06-12T14:03:37.802Z,16.90
2018-06-12T14:06:06.186Z,16.90
2018-06-12T14:08:34.482Z,16.80
2018-06-12T14:11:02.859Z,16.80
2018-06-12T14:13:31.186Z,16.80
2018-06-12T14:15:59.478Z,16.80
2018-06-12T14:18:27.742Z,16.80
2018-06-12T14:20:56.059Z,16.90
2018-06-12T14:23:24.363Z,16.90
2018-06-12T14:25:52.650Z,16.90
2018-06-12T14:28:20.945Z,16.90
2018-06-12T14:30:49.256Z,16.90
2018-06-12T14:33:17.604Z,16.90
2018-06-12T14:35:45.919Z,17.00
2018-06-12T14:38:14.234Z,16.90
2018-06-12T14:40:42.534Z,17.00
2018-06-12T14:43:10.847Z,17.00
2018-06-12T14:45:39.204Z,17.00
2018-06-12T14:48:07.506Z,16.90
2018-06-12T14:50:35.920Z,16.80
2018-06-12T14:53:04.212Z,16.70
2018-06-12T14:55:32.578Z,16.70
2018-06-12T14:58:00.989Z,16.50
2018-06-12T15:02:57.304Z,16.50
2018-06-12T15:05:25.589Z,16.40
2018-06-12T15:07:53.890Z,16.40
2018-06-12T15:10:22.251Z,16.30
2018-06-12T15:12:50.539Z,16.30
2018-06-12T15:15:18.841Z,16.20
2018-06-12T15:17:47.146Z,16.20
2018-06-12T15:22:43.471Z,16.10
2018-06-12T15:25:11.799Z,16.20
2018-06-12T15:30:08.200Z,16.10
2018-06-12T15:32:36.498Z,16.00
2018-06-12T15:35:04.813Z,16.00
2018-06-12T15:37:33.662Z,15.90
2018-06-12T15:40:01.961Z,15.80
2018-06-12T15:42:30.276Z,15.70
2018-06-12T15:44:58.616Z,15.60
2018-06-12T15:47:26.944Z,15.60
2018-06-12T15:54:51.758Z,15.50
2018-06-12T15:57:20.028Z,15.50
2018-06-12T15:59:48.356Z,15.50
2018-06-12T16:04:44.704Z,15.40
2018-06-12T16:07:13.034Z,15.30
2018-06-12T16:09:41.339Z,15.20
2018-06-12T16:12:09.645Z,15.20
2018-06-12T16:14:37.977Z,15.20
2018-06-12T16:17:06.279Z,15.10
2018-06-12T16:19:34.599Z,15.10
2018-06-12T16:22:02.928Z,15.10
2018-06-12T16:24:31.209Z,15.00
2018-06-12T16:26:59.538Z,15.00
2018-06-12T16:29:27.857Z,15.00
2018-06-12T16:31:56.796Z,15.00
2018-06-12T16:34:25.110Z,15.00
2018-06-12T16:36:53.408Z,15.00
2018-06-12T16:41:49.763Z,15.00
2018-06-12T16:44:18.083Z,15.10
2018-06-12T16:46:46.402Z,15.10
2018-06-12T16:49:14.694Z,15.10
2018-06-12T16:51:43.038Z,15.10
2018-06-12T16:54:11.343Z,15.20
2018-06-12T16:56:39.767Z,15.20
2018-06-12T16:59:08.077Z,15.20
2018-06-12T17:01:36.426Z,15.20
2018-06-12T17:06:33.672Z,15.20
2018-06-12T17:09:02.027Z,15.20
2018-06-12T17:11:30.419Z,15.20
2018-06-12T17:13:58.729Z,15.20
2018-06-12T17:16:27.131Z,15.20
2018-06-12T17:18:55.476Z,15.20
2018-06-12T17:21:23.858Z,15.20
2018-06-12T17:23:52.250Z,15.20
2018-06-12T17:26:20.569Z,15.20
2018-06-12T17:28:48.962Z,15.20
2018-06-12T17:31:17.329Z,15.20
2018-06-12T17:33:45.728Z,15.20
2018-06-12T17:36:14.083Z,15.10
2018-06-12T17:38:42.459Z,15.10
2018-06-12T17:41:10.836Z,15.10
2018-06-12T17:46:07.388Z,15.10
2018-06-12T17:48:35.702Z,15.10
2018-06-12T17:51:04.090Z,15.10
2018-06-12T17:53:32.490Z,15.20
2018-06-12T17:56:01.276Z,15.20
2018-06-12T18:00:57.784Z,15.20
2018-06-12T18:03:26.196Z,15.20
2018-06-12T18:05:54.566Z,15.20
2018-06-12T18:08:22.965Z,15.20
2018-06-12T18:10:52.044Z,15.30
2018-06-12T18:13:20.453Z,15.30
2018-06-12T18:15:48.898Z,15.30
2018-06-12T18:18:17.331Z,15.30
2018-06-12T18:20:47.098Z,15.30
2018-06-12T18:23:15.632Z,15.30
2018-06-12T18:25:45.534Z,15.30
2018-06-12T18:28:14.887Z,15.40
2018-06-12T18:30:43.309Z,15.40
2018-06-12T18:33:11.706Z,15.40
2018-06-12T18:35:40.342Z,15.40
2018-06-12T18:38:09.467Z,15.40
2018-06-12T18:43:06.122Z,15.50
2018-06-12T18:48:03.583Z,15.50
2018-06-12T18:50:32.018Z,15.50
2018-06-12T18:53:01.382Z,15.50
2018-06-12T18:55:29.830Z,15.50
2018-06-12T18:57:58.222Z,15.50
2018-06-12T19:00:26.728Z,15.50
2018-06-12T19:02:55.155Z,15.50
2018-06-12T19:07:52.476Z,15.50
2018-06-12T19:10:21.018Z,15.50
2018-06-12T19:12:49.453Z,15.40
2018-06-12T19:15:18.525Z,15.40
2018-06-12T19:17:47.338Z,15.30
2018-06-12T19:20:15.731Z,15.20
2018-06-12T19:22:44.179Z,15.20
2018-06-12T19:25:13.519Z,15.10
2018-06-12T19:27:42.357Z,15.00
2018-06-12T19:30:10.805Z,15.00
2018-06-12T19:32:39.227Z,14.90
2018-06-12T19:35:07.707Z,14.90
2018-06-12T19:37:36.638Z,14.90
2018-06-12T19:40:05.131Z,14.80
2018-06-12T19:42:34.469Z,14.90
2018-06-12T19:45:03.042Z,14.80
2018-06-12T19:47:31.475Z,14.80
2018-06-12T19:49:59.947Z,14.80
2018-06-12T19:52:28.717Z,14.80
2018-06-12T19:54:57.146Z,14.90
2018-06-12T19:57:26.318Z,14.80
2018-06-12T19:59:54.857Z,14.80
2018-06-12T20:04:51.425Z,14.80
2018-06-12T20:07:19.941Z,14.70
2018-06-12T20:09:49.113Z,14.70
2018-06-12T20:14:45.695Z,14.70
2018-06-12T20:17:14.458Z,14.60
2018-06-12T20:19:42.873Z,14.60
2018-06-12T20:22:11.819Z,14.60
2018-06-12T20:24:40.362Z,14.70
2018-06-12T20:27:08.785Z,14.70
2018-06-12T20:29:37.242Z,14.80
2018-06-12T20:32:05.743Z,14.70
2018-06-12T20:34:34.373Z,14.70
2018-06-12T20:37:03.789Z,14.70
2018-06-12T20:39:32.935Z,14.80
2018-06-12T20:42:01.822Z,14.80
2018-06-12T20:44:30.290Z,14.80
2018-06-12T20:46:58.793Z,14.80
2018-06-12T20:49:27.187Z,14.80
2018-06-12T20:51:55.556Z,14.80
2018-06-12T20:54:30.687Z,14.80
2018-06-12T20:56:59.086Z,14.80
2018-06-12T20:59:27.472Z,14.70
2018-06-12T21:01:55.843Z,14.80
2018-06-12T21:04:24.179Z,14.80
2018-06-12T21:06:52.591Z,14.80
2018-06-12T21:09:20.922Z,14.70
2018-06-12T21:11:49.263Z,14.80
2018-06-12T21:14:17.596Z,14.80
2018-06-12T21:16:45.996Z,14.70
2018-06-12T21:19:14.327Z,14.70
2018-06-12T21:21:42.651Z,14.70
2018-06-12T21:26:38.996Z,14.70
2018-06-12T21:29:07.348Z,14.70
2018-06-12T21:31:35.665Z,14.70
2018-06-12T21:34:04.095Z,14.70
2018-06-12T21:36:32.442Z,14.70
2018-06-12T21:39:00.787Z,14.70
2018-06-12T21:43:57.211Z,14.70
2018-06-12T21:46:25.525Z,14.60
2018-06-12T21:51:21.865Z,14.60
2018-06-12T21:53:50.330Z,14.60
2018-06-12T21:56:18.653Z,14.60
2018-06-12T22:01:15.075Z,14.50
2018-06-12T22:03:43.363Z,14.50
2018-06-12T22:06:11.666Z,14.50
2018-06-12T22:08:39.964Z,14.40
2018-06-12T22:16:04.384Z,14.30
2018-06-12T22:18:32.679Z,14.40
2018-06-12T22:23:29.301Z,14.40
2018-06-12T22:25:57.674Z,14.40
2018-06-12T22:28:25.969Z,14.40
2018-06-12T22:30:54.262Z,14.40
2018-06-12T22:33:22.560Z,14.40
2018-06-12T22:35:50.861Z,14.40
2018-06-12T22:38:19.131Z,14.40
2018-06-12T22:40:47.402Z,14.40
2018-06-12T22:43:15.680Z,14.40
2018-06-12T22:45:44.035Z,14.40
2018-06-12T22:48:12.610Z,14.40
2018-06-12T22:50:40.888Z,14.40
2018-06-12T22:53:09.170Z,14.40
2018-06-12T22:55:37.455Z,14.40
2018-06-12T22:58:06.054Z,14.30
2018-06-12T23:00:34.362Z,14.30
2018-06-12T23:03:02.625Z,14.30
2018-06-12T23:05:30.882Z,14.30
2018-06-12T23:07:59.164Z,14.30
2018-06-12T23:10:27.463Z,14.30
2018-06-12T23:12:55.852Z,14.30
2018-06-12T23:15:24.141Z,14.30
2018-06-12T23:17:52.459Z,14.30
2018-06-12T23:20:31.987Z,14.30
2018-06-12T23:23:00.328Z,14.30
2018-06-12T23:25:28.596Z,14.30
2018-06-12T23:27:56.912Z,14.30
2018-06-12T23:30:25.188Z,14.30
2018-06-12T23:32:53.584Z,14.20
2018-06-12T23:35:21.876Z,14.20
2018-06-12T23:37:50.159Z,14.20
2018-06-12T23:40:18.568Z,14.20
2018-06-12T23:42:46.872Z,14.20
2018-06-12T23:45:15.147Z,14.10
2018-06-12T23:50:11.400Z,14.10
2018-06-12T23:52:39.724Z,14.10
2018-06-12T23:55:07.986Z,14.10
2018-06-12T23:57:36.283Z,14.10
